createdAt,value
2018-09-30T00:01:18.456Z,100377.58
2018-09-30T00:03:50.048Z,100377.41
2018-09-30T00:06:24.327Z,100375.73
2018-09-30T00:08:55.724Z,100365.53
2018-09-30T00:11:27.078Z,100367.70
2018-09-30T00:13:58.271Z,100367.55
2018-09-30T00:16:30.089Z,100365.86
2018-09-30T00:19:01.678Z,100374.06
2018-09-30T00:21:33.284Z,100239.84
2018-09-30T00:24:09.676Z,100361.70
2018-09-30T00:26:46.261Z,100368.72
2018-09-30T00:29:19.318Z,100360.87
2018-09-30T00:31:51.904Z,100370.54
2018-09-30T00:34:30.576Z,100354.30
2018-09-30T00:37:02.353Z,100355.80
2018-09-30T00:39:34.770Z,100350.98
2018-09-30T00:42:05.935Z,100358.98
2018-09-30T00:44:37.689Z,100360.81
2018-09-30T00:47:08.941Z,100357.81
2018-09-30T00:49:40.322Z,100353.64
2018-09-30T00:52:11.637Z,100332.23
2018-09-30T00:54:43.999Z,100345.96
2018-09-30T00:57:15.837Z,100349.63
2018-09-30T00:59:47.060Z,100347.12
2018-09-30T01:02:18.988Z,100341.11
2018-09-30T01:04:50.274Z,100336.08
2018-09-30T01:07:21.543Z,100338.92
2018-09-30T01:09:53.503Z,100334.25
2018-09-30T01:12:24.975Z,100330.06
2018-09-30T01:14:56.571Z,100332.42
2018-09-30T01:17:28.133Z,100327.39
2018-09-30T01:19:58.621Z,100323.20
2018-09-30T01:22:29.895Z,100324.34
2018-09-30T01:25:01.672Z,100316.52
2018-09-30T01:27:33.029Z,100319.35
2018-09-30T01:30:06.751Z,100309.34
2018-09-30T01:32:38.532Z,100310.33
2018-09-30T01:35:10.549Z,100306.32
2018-09-30T01:37:41.863Z,100312.32
2018-09-30T01:40:13.493Z,100270.04
2018-09-30T01:42:44.790Z,100301.31
2018-09-30T01:45:22.228Z,100302.78
2018-09-30T01:47:53.517Z,100287.94
2018-09-30T01:50:25.113Z,100293.94
2018-09-30T01:52:57.595Z,100290.92
2018-09-30T01:55:28.970Z,100292.25
2018-09-30T01:58:00.363Z,100289.59
2018-09-30T02:00:31.577Z,100288.25
2018-09-30T02:03:03.163Z,100301.26
2018-09-30T02:05:34.464Z,100297.27
2018-09-30T02:08:05.768Z,100287.75
2018-09-30T02:10:37.405Z,100283.39
2018-09-30T02:13:08.941Z,100293.45
2018-09-30T02:15:40.255Z,100274.91
2018-09-30T02:18:12.658Z,100280.58
2018-09-30T02:20:44.693Z,100283.91
2018-09-30T02:23:16.035Z,100281.23
2018-09-30T02:25:47.473Z,100287.87
2018-09-30T02:28:18.954Z,100290.17
2018-09-30T02:30:50.210Z,100285.77
2018-09-30T02:33:21.558Z,100280.93
2018-09-30T02:35:52.923Z,100273.02
2018-09-30T02:38:24.203Z,100276.27
2018-09-30T02:40:57.499Z,100271.41
2018-09-30T02:43:28.769Z,100269.80
2018-09-30T02:46:00.006Z,100279.30
2018-09-30T02:48:31.368Z,100271.48
2018-09-30T02:51:03.421Z,100268.08
2018-09-30T02:53:34.972Z,100259.15
2018-09-30T02:56:05.709Z,100264.20
2018-09-30T02:58:37.090Z,100254.93
2018-09-30T03:01:09.360Z,100251.28
2018-09-30T03:03:40.684Z,100246.12
2018-09-30T03:06:17.105Z,100253.28
2018-09-30T03:08:53.292Z,100244.67
2018-09-30T03:11:24.587Z,100235.88
2018-09-30T03:13:55.959Z,100233.56
2018-09-30T03:16:27.176Z,100228.45
2018-09-30T03:21:32.103Z,100223.48
2018-09-30T03:24:03.753Z,100226.97
2018-09-30T03:26:34.944Z,100101.15
2018-09-30T03:29:06.758Z,100215.77
2018-09-30T03:31:38.503Z,100216.97
2018-09-30T03:34:10.595Z,100208.51
2018-09-30T03:36:41.859Z,100201.33
2018-09-30T03:39:13.575Z,100193.30
2018-09-30T03:41:44.829Z,100193.97
2018-09-30T03:44:16.384Z,100194.27
2018-09-30T03:46:47.688Z,100189.28
2018-09-30T03:49:19.973Z,100188.12
2018-09-30T03:51:51.629Z,100189.94
2018-09-30T03:54:22.924Z,100186.92
2018-09-30T03:56:54.574Z,100189.98
2018-09-30T03:59:26.230Z,100190.09
2018-09-30T04:01:57.489Z,100188.73
2018-09-30T04:04:29.219Z,100196.91
2018-09-30T04:07:00.548Z,100188.61
2018-09-30T04:09:32.044Z,100183.98
2018-09-30T04:12:03.250Z,100180.66
2018-09-30T04:14:35.085Z,100188.16
2018-09-30T04:17:08.847Z,100183.44
2018-09-30T04:19:40.223Z,100187.39
2018-09-30T04:22:11.524Z,100184.55
2018-09-30T04:24:43.197Z,100184.84
2018-09-30T04:27:14.400Z,100176.78
2018-09-30T04:29:46.404Z,100164.62
2018-09-30T04:32:17.109Z,100168.47
2018-09-30T04:34:48.463Z,100176.31
2018-09-30T04:37:19.731Z,100182.81
2018-09-30T04:39:51.046Z,100177.95
2018-09-30T04:42:22.366Z,100178.97
2018-09-30T04:44:54.047Z,100164.61
2018-09-30T04:47:25.414Z,100171.97
2018-09-30T04:49:57.037Z,100162.59
2018-09-30T04:52:30.379Z,100166.79
2018-09-30T04:55:01.686Z,100161.63
2018-09-30T04:57:33.363Z,100161.15
2018-09-30T05:00:06.049Z,100160.95
2018-09-30T05:02:37.718Z,100160.14
2018-09-30T05:05:09.570Z,100155.97
2018-09-30T05:07:40.147Z,100158.63
2018-09-30T05:10:11.783Z,100168.30
2018-09-30T05:12:44.233Z,100150.13
2018-09-30T05:15:18.789Z,100160.36
2018-09-30T05:17:50.088Z,100140.79
2018-09-30T05:20:21.840Z,100153.48
2018-09-30T05:22:53.255Z,100159.66
2018-09-30T05:25:25.194Z,100156.30
2018-09-30T05:27:56.517Z,100147.30
2018-09-30T05:30:27.737Z,100102.34
2018-09-30T05:32:59.545Z,100159.30
2018-09-30T05:35:30.022Z,100160.97
2018-09-30T05:38:01.452Z,100157.98
2018-09-30T05:40:33.061Z,100156.97
2018-09-30T05:43:04.418Z,100164.98
2018-09-30T05:45:35.797Z,100164.66
2018-09-30T05:48:07.194Z,100163.64
2018-09-30T05:50:38.503Z,100161.38
2018-09-30T05:53:10.190Z,100158.38
2018-09-30T05:55:41.372Z,100158.45
2018-09-30T05:58:12.609Z,100161.33
2018-09-30T06:00:43.961Z,100038.41
2018-09-30T06:03:15.336Z,100162.84
2018-09-30T06:05:47.345Z,100154.45
2018-09-30T06:08:18.633Z,100136.88
2018-09-30T06:10:50.012Z,100139.28
2018-09-30T06:13:20.735Z,100131.19
2018-09-30T06:15:52.160Z,100143.95
2018-09-30T06:18:24.691Z,100144.16
2018-09-30T06:20:56.479Z,100149.08
2018-09-30T06:23:27.932Z,100137.27
2018-09-30T06:25:59.992Z,100048.36
2018-09-30T06:28:31.402Z,100139.53
2018-09-30T06:31:02.656Z,100144.32
2018-09-30T06:33:33.896Z,100139.33
2018-09-30T06:36:04.381Z,100138.00
2018-09-30T06:38:34.923Z,100150.19
2018-09-30T06:41:17.555Z,100146.61
2018-09-30T06:43:58.655Z,100133.81
2018-09-30T06:46:29.408Z,100147.31
2018-09-30T06:49:00.743Z,100147.18
2018-09-30T06:51:31.242Z,100156.31
2018-09-30T06:54:02.736Z,100161.53
2018-09-30T06:56:34.087Z,100149.95
2018-09-30T06:59:04.652Z,100156.00
2018-09-30T07:01:35.497Z,100152.75
2018-09-30T07:04:07.533Z,100150.31
2018-09-30T07:06:38.308Z,100147.91
2018-09-30T07:09:09.669Z,100150.91
2018-09-30T07:11:41.078Z,100125.16
2018-09-30T07:14:12.433Z,100155.70
2018-09-30T07:16:44.341Z,100164.48
2018-09-30T07:19:14.836Z,100163.05
2018-09-30T07:21:47.389Z,100163.66
2018-09-30T07:24:19.343Z,100158.30
2018-09-30T07:26:49.951Z,100149.89
2018-09-30T07:29:23.041Z,100160.96
2018-09-30T07:31:53.603Z,100144.78
2018-09-30T07:34:25.307Z,100148.56
2018-09-30T07:36:55.826Z,100150.20
2018-09-30T07:39:27.036Z,100132.59
2018-09-30T07:42:00.588Z,100139.14
2018-09-30T07:44:31.614Z,100140.98
2018-09-30T07:47:04.016Z,100130.47
2018-09-30T07:49:34.569Z,100121.98
2018-09-30T07:52:05.055Z,100123.80
2018-09-30T07:54:35.578Z,100123.69
2018-09-30T07:57:07.930Z,100122.09
2018-09-30T07:59:39.528Z,100121.33
2018-09-30T08:02:09.988Z,100118.00
2018-09-30T08:04:40.423Z,100116.31
2018-09-30T08:07:10.838Z,100113.52
2018-09-30T08:09:42.305Z,100116.57
2018-09-30T08:12:14.302Z,100110.92
2018-09-30T08:14:48.721Z,100107.33
2018-09-30T08:17:20.255Z,100099.65
2018-09-30T08:19:51.424Z,100092.91
2018-09-30T08:22:24.489Z,100094.16
2018-09-30T08:24:56.584Z,100091.95
2018-09-30T08:27:28.708Z,100097.05
2018-09-30T08:30:00.040Z,100094.02
2018-09-30T08:32:33.126Z,100091.31
2018-09-30T08:35:04.889Z,100085.25
2018-09-30T08:37:40.719Z,100082.45
2018-09-30T08:40:11.618Z,100091.82
2018-09-30T08:42:43.640Z,100086.42
2018-09-30T08:45:19.193Z,100089.04
2018-09-30T08:47:50.763Z,100092.61
2018-09-30T08:50:30.423Z,100092.43
2018-09-30T08:53:05.886Z,100080.52
2018-09-30T08:55:36.829Z,100083.92
2018-09-30T08:58:09.135Z,100079.21
2018-09-30T09:00:40.489Z,100077.44
2018-09-30T09:03:12.071Z,100006.80
2018-09-30T09:05:45.243Z,100052.46
2018-09-30T09:08:17.506Z,100066.17
2018-09-30T09:10:49.351Z,100063.72
2018-09-30T09:13:22.922Z,100059.84
2018-09-30T09:15:55.470Z,100059.86
2018-09-30T09:18:26.185Z,100056.83
2018-09-30T09:20:58.850Z,100072.52
2018-09-30T09:23:29.468Z,100076.15
2018-09-30T09:26:00.863Z,100063.33
2018-09-30T09:28:32.157Z,100058.61
2018-09-30T09:31:04.154Z,100044.30
2018-09-30T09:33:35.318Z,100041.84
2018-09-30T09:36:06.821Z,100041.03
2018-09-30T09:38:37.561Z,100039.98
2018-09-30T09:41:10.085Z,100024.34
2018-09-30T09:43:41.546Z,100032.63
2018-09-30T09:46:13.513Z,100030.16
2018-09-30T09:48:44.194Z,100025.73
2018-09-30T09:51:15.114Z,100035.70
2018-09-30T09:53:47.506Z,100032.30
2018-09-30T09:56:19.739Z,100035.59
2018-09-30T09:58:52.552Z,100033.86
2018-09-30T10:01:25.354Z,100031.92
2018-09-30T10:03:58.498Z,100019.31
2018-09-30T10:06:31.797Z,100016.11
2018-09-30T10:09:03.753Z,99947.79
2018-09-30T10:11:34.610Z,100012.48
2018-09-30T10:14:07.476Z,100014.75
2018-09-30T10:16:45.348Z,100009.20
2018-09-30T10:19:23.332Z,100002.09
2018-09-30T10:21:57.537Z,100002.20
2018-09-30T10:24:29.188Z,99957.33
2018-09-30T10:27:01.497Z,99996.79
2018-09-30T10:29:33.278Z,99996.91
2018-09-30T10:32:06.335Z,99993.27
2018-09-30T10:34:37.952Z,99989.20
2018-09-30T10:37:10.886Z,99980.17
2018-09-30T10:39:41.470Z,99972.95
2018-09-30T10:42:12.252Z,99969.61
2018-09-30T10:44:44.166Z,99973.48
2018-09-30T10:47:15.684Z,99969.19
2018-09-30T10:49:47.642Z,99967.82
2018-09-30T10:52:20.655Z,99963.48
2018-09-30T10:54:51.599Z,99958.69
2018-09-30T10:57:23.618Z,99950.66
2018-09-30T10:59:56.448Z,99956.14
2018-09-30T11:02:29.858Z,99946.81
2018-09-30T11:04:59.483Z,99944.33
2018-09-30T11:07:32.442Z,99936.44
2018-09-30T11:10:05.535Z,99932.85
2018-09-30T11:12:37.135Z,99931.27
2018-09-30T11:15:09.902Z,99927.53
2018-09-30T11:17:40.397Z,99919.59
2018-09-30T11:20:17.795Z,99921.57
2018-09-30T11:22:50.293Z,99915.16
2018-09-30T11:25:24.489Z,99910.82
2018-09-30T11:27:58.029Z,99901.82
2018-09-30T11:30:29.955Z,99888.14
2018-09-30T11:33:01.829Z,99894.23
2018-09-30T11:35:36.494Z,99886.86
2018-09-30T11:38:08.379Z,99879.52
2018-09-30T11:40:41.452Z,99878.17
2018-09-30T11:43:12.684Z,99879.03
2018-09-30T11:45:45.632Z,99868.91
2018-09-30T11:48:17.139Z,99869.13
2018-09-30T11:50:52.729Z,99866.65
2018-09-30T11:53:24.569Z,99859.45
2018-09-30T11:55:58.783Z,99852.36
2018-09-30T11:58:29.216Z,99853.16
2018-09-30T12:01:00.615Z,99856.56
2018-09-30T12:03:31.904Z,99848.06
2018-09-30T12:06:04.684Z,99840.13
2018-09-30T12:08:37.651Z,99842.04
2018-09-30T12:11:10.578Z,99840.69
2018-09-30T12:13:42.825Z,99837.42
2018-09-30T12:16:15.673Z,99822.62
2018-09-30T12:18:48.430Z,99753.08
2018-09-30T12:21:19.083Z,99810.05
2018-09-30T12:23:49.449Z,99814.16
2018-09-30T12:26:19.943Z,99807.05
2018-09-30T12:28:51.370Z,99804.05
2018-09-30T12:31:22.227Z,99793.38
2018-09-30T12:33:53.811Z,99779.31
2018-09-30T12:36:24.224Z,99783.95
2018-09-30T12:38:53.805Z,99775.26
2018-09-30T12:41:23.474Z,99775.83
2018-09-30T12:43:55.645Z,99786.81
2018-09-30T12:46:27.275Z,99691.89
2018-09-30T12:49:00.476Z,99777.22
2018-09-30T12:51:32.246Z,99776.12
2018-09-30T12:54:07.848Z,99777.78
2018-09-30T12:56:38.385Z,99772.27
2018-09-30T12:59:10.309Z,99770.89
2018-09-30T13:01:43.210Z,99771.78
2018-09-30T13:04:15.853Z,99759.19
2018-09-30T13:06:47.670Z,99753.16
2018-09-30T13:09:21.423Z,99758.56
2018-09-30T13:11:53.133Z,99754.04
2018-09-30T13:14:24.375Z,99748.06
2018-09-30T13:16:58.517Z,99751.14
2018-09-30T13:19:28.965Z,99746.86
2018-09-30T13:21:59.496Z,99747.66
2018-09-30T13:24:31.227Z,99741.13
2018-09-30T13:27:01.626Z,99744.12
2018-09-30T13:29:32.280Z,99740.27
2018-09-30T13:32:02.848Z,99653.37
2018-09-30T13:34:36.260Z,99728.75
2018-09-30T13:37:09.662Z,99723.50
2018-09-30T13:39:41.244Z,99724.66
2018-09-30T13:42:11.846Z,99721.44
2018-09-30T13:44:42.335Z,99716.77
2018-09-30T13:47:12.751Z,99719.80
2018-09-30T13:49:44.186Z,99718.41
2018-09-30T13:52:15.219Z,99710.73
2018-09-30T13:54:46.080Z,99708.48
2018-09-30T13:57:18.151Z,99703.17
2018-09-30T13:59:49.179Z,99712.00
2018-09-30T14:02:19.578Z,99705.36
2018-09-30T14:04:51.389Z,99702.19
2018-09-30T14:07:23.709Z,99700.41
2018-09-30T14:09:57.449Z,99696.69
2018-09-30T14:12:29.149Z,99696.34
2018-09-30T14:15:00.923Z,99692.55
2018-09-30T14:17:32.525Z,99688.13
2018-09-30T14:20:04.803Z,99682.91
2018-09-30T14:22:36.899Z,99683.20
2018-09-30T14:25:08.542Z,99684.64
2018-09-30T14:27:39.113Z,99688.98
2018-09-30T14:30:14.696Z,99683.33
2018-09-30T14:32:49.176Z,99679.95
2018-09-30T14:35:21.428Z,99678.31
2018-09-30T14:37:51.967Z,99677.45
2018-09-30T14:40:24.343Z,99674.08
2018-09-30T14:42:55.328Z,99670.58
2018-09-30T14:45:27.920Z,99666.13
2018-09-30T14:47:58.522Z,99664.41
2018-09-30T14:50:29.282Z,99656.20
2018-09-30T14:53:00.135Z,99654.63
2018-09-30T14:55:33.704Z,99639.99
2018-09-30T14:58:04.383Z,99649.75
2018-09-30T15:00:38.586Z,99641.20
2018-09-30T15:03:09.357Z,99636.68
2018-09-30T15:05:42.131Z,99633.41
2018-09-30T15:08:11.775Z,99633.41
2018-09-30T15:10:44.129Z,99632.50
2018-09-30T15:13:14.291Z,99629.15
2018-09-30T15:15:46.685Z,99627.84
2018-09-30T15:18:21.413Z,99624.53
2018-09-30T15:20:55.917Z,99628.56
2018-09-30T15:23:27.486Z,99624.20
2018-09-30T15:25:58.861Z,99616.80
2018-09-30T15:28:31.313Z,99625.55
2018-09-30T15:31:03.757Z,99620.53
2018-09-30T15:33:37.440Z,99595.85
2018-09-30T15:36:08.999Z,99610.63
2018-09-30T15:38:39.759Z,99609.94
2018-09-30T15:41:12.128Z,99607.93
2018-09-30T15:43:43.287Z,99608.59
2018-09-30T15:46:12.992Z,99608.56
2018-09-30T15:48:46.585Z,99611.38
2018-09-30T15:51:16.260Z,99608.39
2018-09-30T15:53:49.774Z,99605.20
2018-09-30T15:56:20.798Z,99599.88
2018-09-30T15:58:51.427Z,99598.56
2018-09-30T16:01:23.054Z,99597.06
2018-09-30T16:03:53.617Z,99588.20
2018-09-30T16:09:02.406Z,99582.08
2018-09-30T16:11:34.918Z,99589.60
2018-09-30T16:14:22.984Z,99578.98
2018-09-30T16:17:01.211Z,99581.11
2018-09-30T16:19:36.062Z,99586.66
2018-09-30T16:22:09.341Z,99586.97
2018-09-30T16:24:42.367Z,99580.52
2018-09-30T16:27:13.878Z,99582.87
2018-09-30T16:29:46.976Z,99585.08
2018-09-30T16:32:22.726Z,99579.57
2018-09-30T16:35:00.813Z,99515.83
2018-09-30T16:37:32.261Z,99579.86
2018-09-30T16:40:07.876Z,99578.56
2018-09-30T16:42:42.295Z,99576.50
2018-09-30T16:45:23.339Z,99579.33
2018-09-30T16:47:56.856Z,99588.94
2018-09-30T16:52:57.540Z,99589.19
2018-09-30T16:55:28.722Z,99569.39
2018-09-30T16:58:00.213Z,99586.95
2018-09-30T17:00:32.606Z,99588.38
2018-09-30T17:03:06.437Z,99594.53
2018-09-30T17:05:39.552Z,99594.61
2018-09-30T17:08:13.624Z,99597.52
2018-09-30T17:10:48.297Z,99598.83
2018-09-30T17:13:21.379Z,99596.36
2018-09-30T17:16:00.575Z,99606.23
2018-09-30T17:18:35.135Z,99604.28
2018-09-30T17:21:07.696Z,99606.20
2018-09-30T17:23:38.429Z,99604.52
2018-09-30T17:26:12.254Z,99602.23
2018-09-30T17:28:43.432Z,99608.67
2018-09-30T17:31:16.198Z,99612.70
2018-09-30T17:33:47.630Z,99607.52
2018-09-30T17:36:21.502Z,99607.98
2018-09-30T17:38:55.822Z,99501.51
2018-09-30T17:41:31.705Z,99609.92
2018-09-30T17:44:04.581Z,99599.00
2018-09-30T17:46:36.321Z,99604.97
2018-09-30T17:49:12.693Z,99601.89
2018-09-30T17:51:45.997Z,99593.75
2018-09-30T17:54:21.419Z,99586.02
2018-09-30T17:56:51.925Z,99584.14
2018-09-30T17:59:25.478Z,99594.05
2018-09-30T18:02:00.479Z,99590.02
2018-09-30T18:04:34.366Z,99588.23
2018-09-30T18:07:06.672Z,99584.31
2018-09-30T18:09:42.231Z,99578.72
2018-09-30T18:12:16.198Z,99574.22
2018-09-30T18:14:50.400Z,99578.20
2018-09-30T18:17:23.046Z,99577.91
2018-09-30T18:19:55.885Z,99578.51
2018-09-30T18:22:28.277Z,99584.05
2018-09-30T18:25:00.946Z,99577.01
2018-09-30T18:27:34.035Z,99574.80
2018-09-30T18:30:09.113Z,99580.98
2018-09-30T18:32:43.160Z,99573.91
2018-09-30T18:35:14.279Z,99576.33
2018-09-30T18:37:47.383Z,99581.17
2018-09-30T18:40:21.351Z,99565.61
2018-09-30T18:42:52.459Z,99552.70
2018-09-30T18:45:33.324Z,99589.99
2018-09-30T18:48:05.270Z,99590.80
2018-09-30T18:50:38.136Z,99599.88
2018-09-30T18:53:11.414Z,99597.06
2018-09-30T18:55:44.618Z,99587.94
2018-09-30T18:58:16.317Z,99584.30
2018-09-30T19:00:49.289Z,99589.25
2018-09-30T19:03:21.452Z,99591.87
2018-09-30T19:05:54.441Z,99501.98
2018-09-30T19:11:32.705Z,99579.06
2018-09-30T19:14:04.802Z,99586.88
2018-09-30T19:16:35.727Z,99588.58
2018-09-30T19:19:08.291Z,99576.64
2018-09-30T19:21:53.604Z,99582.13
2018-09-30T19:24:25.829Z,99568.72
2018-09-30T19:26:57.821Z,99584.84
2018-09-30T19:29:27.632Z,99583.63
2018-09-30T19:31:57.744Z,99579.45
2018-09-30T19:34:27.502Z,99575.34
2018-09-30T19:37:01.128Z,99588.45
2018-09-30T19:39:32.502Z,99581.75
2018-09-30T19:42:03.061Z,99572.59
2018-09-30T19:44:35.919Z,99581.06
2018-09-30T19:47:07.509Z,99579.72
2018-09-30T19:49:40.861Z,99559.83
2018-09-30T19:52:15.626Z,99568.29
2018-09-30T19:54:46.932Z,99560.80
2018-09-30T19:57:20.208Z,99566.94
2018-09-30T19:59:50.678Z,99470.45
2018-09-30T20:02:25.004Z,99557.11
2018-09-30T20:04:56.528Z,99570.17
2018-09-30T20:07:29.289Z,99569.81
2018-09-30T20:10:00.896Z,99556.48
2018-09-30T20:12:36.891Z,99559.66
2018-09-30T20:15:09.029Z,99560.32
2018-09-30T20:17:42.842Z,99565.91
2018-09-30T20:20:15.070Z,99559.49
2018-09-30T20:22:46.402Z,99568.83
2018-09-30T20:25:17.119Z,99560.90
2018-09-30T20:27:51.148Z,99563.79
2018-09-30T20:30:24.527Z,99553.84
2018-09-30T20:32:58.407Z,99557.34
2018-09-30T20:35:29.201Z,99564.13
2018-09-30T20:38:01.984Z,99567.88
2018-09-30T20:40:33.428Z,99564.36
2018-09-30T20:43:05.432Z,99566.54
2018-09-30T20:45:36.853Z,99564.45
2018-09-30T20:48:07.809Z,99569.17
2018-09-30T20:50:40.146Z,99561.45
2018-09-30T20:53:12.400Z,99560.39
2018-09-30T20:55:44.365Z,99565.47
2018-09-30T20:58:16.963Z,99557.05
2018-09-30T21:00:52.743Z,99564.45
2018-09-30T21:03:24.203Z,99554.45
2018-09-30T21:06:31.219Z,99559.52
2018-09-30T21:09:03.909Z,99557.03
2018-09-30T21:11:40.266Z,99551.90
2018-09-30T21:14:13.934Z,99554.62
2018-09-30T21:16:45.447Z,99557.40
2018-09-30T21:19:16.815Z,99562.81
2018-09-30T21:21:47.538Z,99566.08
2018-09-30T21:24:18.085Z,99574.53
2018-09-30T21:26:50.569Z,99560.16
2018-09-30T21:29:22.455Z,99560.42
2018-09-30T21:31:56.201Z,99551.52
2018-09-30T21:34:29.570Z,99545.45
2018-09-30T21:37:04.407Z,99550.87
2018-09-30T21:39:39.498Z,99544.70
2018-09-30T21:42:10.930Z,99544.22
2018-09-30T21:44:42.313Z,99535.58
2018-09-30T21:47:15.760Z,99550.20
2018-09-30T21:49:51.301Z,99550.69
2018-09-30T21:52:25.600Z,99473.02
2018-09-30T21:54:56.714Z,99551.44
2018-09-30T21:57:31.677Z,99551.28
2018-09-30T22:00:04.990Z,99549.22
2018-09-30T22:02:35.557Z,99543.81
2018-09-30T22:05:08.287Z,99538.78
2018-09-30T22:07:41.724Z,99547.20
2018-09-30T22:10:12.366Z,99546.82
2018-09-30T22:12:46.116Z,99542.59
2018-09-30T22:15:17.842Z,99538.67
2018-09-30T22:17:50.248Z,99548.73
2018-09-30T22:20:22.162Z,99543.70
2018-09-30T22:22:54.798Z,99535.18
2018-09-30T22:25:26.212Z,99538.70
2018-09-30T22:28:00.339Z,99539.17
2018-09-30T22:30:32.217Z,99538.44
2018-09-30T22:33:04.040Z,99535.23
2018-09-30T22:35:35.473Z,99530.22
2018-09-30T22:38:06.320Z,99534.55
2018-09-30T22:40:38.218Z,99532.42
2018-09-30T22:43:10.353Z,99513.06
2018-09-30T22:45:43.642Z,99519.11
2018-09-30T22:48:15.307Z,99528.89
2018-09-30T22:50:47.459Z,99536.33
2018-09-30T22:53:22.327Z,99534.37
2018-09-30T22:55:56.269Z,99538.52
2018-09-30T22:58:27.732Z,99537.33
2018-09-30T23:00:59.061Z,99535.44
2018-09-30T23:03:30.619Z,99542.44
2018-09-30T23:06:02.681Z,99535.33
2018-09-30T23:08:34.555Z,99535.54
2018-09-30T23:14:32.790Z,99536.85
2018-09-30T23:17:04.381Z,99540.81
2018-09-30T23:19:37.329Z,99540.98
2018-09-30T23:22:12.693Z,99546.80
2018-09-30T23:24:44.045Z,99554.57
2018-09-30T23:27:14.912Z,99550.20
2018-09-30T23:29:46.265Z,99552.47
2018-09-30T23:32:16.824Z,99558.49
2018-09-30T23:34:47.234Z,99556.81
2018-09-30T23:37:18.604Z,99545.16
2018-09-30T23:39:50.231Z,99547.34
2018-09-30T23:42:20.649Z,99531.56
2018-09-30T23:44:52.027Z,99542.58
2018-09-30T23:47:23.688Z,99551.21
2018-09-30T23:49:55.114Z,99548.89
2018-09-30T23:52:26.416Z,99553.65
2018-09-30T23:54:58.430Z,99547.27
2018-09-30T23:57:29.698Z,99550.90
